Startpagina
METAR-TAF:

METAR-TAF

Vliegvelden :

Aeropuerto Internacional de Maiquetía Simón Bolívar

Caracas, Venezuela

breedte: 10-36N, lengte: 066-59W, hoogte: 43 m

Actueel weer

Dit bericht is 12 minuten geleden gemaakt, om 21:00 UTC
Wind 5 kt uit het oosten
Temperatuur 30°C
Vochtigheid 55%
Druk 1006 hPa
Zicht 10 km of meer
Weinig wolken op 1600 ft

METAR: SVMI 212100Z 09005KT 9999 FEW016 30/20 Q1006

Tijdstip: 17:12 (21:12 UTC)


TAF: ontbreekt

Waarnemingen en weersverwachtingen van meer dan 4000 vliegvelden (METAR en TAF).

De beschikbare stations zijn de gele en rode punten op de kaart.

Ga met uw muis naar het station om de naam te zien.

Klik dan om waarnemingen en weersverwachtingen te zien.

kaart wijzigen: klik op de groene knoppen met een zwart kruis om in te zoomen, op de groene knop met een streepje om uit te zoomen of op de groene pijlen voor aangrenzende kaarten.


METAR-TAF: